createdAt,value
2017-10-02T00:00:55.310Z,1023.02
2017-10-02T00:01:57.193Z,1022.99
2017-10-02T00:03:11.362Z,1023.01
2017-10-02T00:04:13.241Z,1022.99
2017-10-02T00:05:15.126Z,1022.96
2017-10-02T00:06:17.020Z,1022.93
2017-10-02T00:07:18.839Z,1022.95
2017-10-02T00:08:20.660Z,1022.91
2017-10-02T00:09:22.554Z,1022.90
2017-10-02T00:10:24.438Z,1022.87
2017-10-02T00:11:26.322Z,1022.84
2017-10-02T00:12:40.478Z,1022.85
2017-10-02T00:13:42.371Z,1022.84
2017-10-02T00:14:44.261Z,1022.84
2017-10-02T00:15:46.155Z,1022.80
2017-10-02T00:16:47.976Z,1022.84
2017-10-02T00:17:49.794Z,1022.83
2017-10-02T00:18:51.688Z,1022.90
2017-10-02T00:19:53.584Z,1022.86
2017-10-02T00:20:55.465Z,1022.89
2017-10-02T00:22:09.631Z,1022.86
2017-10-02T00:23:11.523Z,1022.89
2017-10-02T00:24:13.422Z,1022.86
2017-10-02T00:25:15.305Z,1022.85
2017-10-02T00:26:17.123Z,1022.87
2017-10-02T00:27:18.952Z,1022.87
2017-10-02T00:28:20.855Z,1022.89
2017-10-02T00:29:22.715Z,1022.90
2017-10-02T00:30:24.610Z,1022.86
2017-10-02T00:31:38.774Z,1022.86
2017-10-02T00:32:40.670Z,1022.84
2017-10-02T00:33:42.549Z,1022.82
2017-10-02T00:34:44.445Z,1022.82
2017-10-02T00:35:46.317Z,1022.80
2017-10-02T00:36:48.135Z,1022.78
2017-10-02T00:37:49.954Z,1022.71
2017-10-02T00:38:51.838Z,1022.68
2017-10-02T00:39:53.719Z,1022.68
2017-10-02T00:41:07.993Z,1022.65
2017-10-02T00:42:09.870Z,1022.64
2017-10-02T00:43:11.752Z,1022.67
2017-10-02T00:44:13.640Z,1022.59
2017-10-02T00:45:15.504Z,1022.58
2017-10-02T00:46:17.332Z,1022.57
2017-10-02T00:47:19.225Z,1022.53
2017-10-02T00:48:21.106Z,1022.53
2017-10-02T00:49:23.003Z,1022.49
2017-10-02T00:50:37.159Z,1022.54
2017-10-02T00:51:39.051Z,1022.58
2017-10-02T00:52:40.931Z,1022.58
2017-10-02T00:53:42.828Z,1022.59
2017-10-02T00:54:44.651Z,1022.59
2017-10-02T00:55:46.464Z,1022.59
2017-10-02T00:56:48.345Z,1022.58
2017-10-02T00:57:50.239Z,1022.59
2017-10-02T00:58:52.124Z,1022.60
2017-10-02T01:00:06.278Z,1022.63
2017-10-02T01:01:08.159Z,1022.61
2017-10-02T01:02:10.044Z,1022.63
2017-10-02T01:03:11.940Z,1022.66
2017-10-02T01:04:13.759Z,1022.65
2017-10-02T01:05:15.574Z,1022.64
2017-10-02T01:06:17.465Z,1022.66
2017-10-02T01:07:19.359Z,1022.64
2017-10-02T01:08:21.242Z,1022.63
2017-10-02T01:09:35.397Z,1022.65
2017-10-02T01:10:37.292Z,1022.55
2017-10-02T01:11:39.172Z,1022.53
2017-10-02T01:12:41.055Z,1022.54
2017-10-02T01:13:42.888Z,1022.49
2017-10-02T01:14:44.707Z,1022.48
2017-10-02T01:15:46.586Z,1022.45
2017-10-02T01:16:48.483Z,1022.43
2017-10-02T01:17:50.370Z,1022.43
2017-10-02T01:19:04.538Z,1022.43
2017-10-02T01:20:06.430Z,1022.37
2017-10-02T01:21:08.323Z,1022.34
2017-10-02T01:22:10.207Z,1022.34
2017-10-02T01:23:12.036Z,1022.37
2017-10-02T01:24:13.866Z,1022.37
2017-10-02T01:25:15.748Z,1022.36
2017-10-02T01:26:17.642Z,1022.36
2017-10-02T01:27:19.537Z,1022.40
2017-10-02T01:28:33.695Z,1022.42
2017-10-02T01:29:35.585Z,1022.43
2017-10-02T01:30:37.469Z,1022.43
2017-10-02T01:31:39.370Z,1022.44
2017-10-02T01:32:41.186Z,1022.46
2017-10-02T01:33:43.014Z,1022.41
2017-10-02T01:34:44.895Z,1022.46
2017-10-02T01:35:46.789Z,1022.41
2017-10-02T01:36:48.676Z,1022.35
2017-10-02T01:38:03.075Z,1022.41
2017-10-02T01:39:04.958Z,1022.42
2017-10-02T01:40:06.862Z,1022.37
2017-10-02T01:41:08.746Z,1022.39
2017-10-02T01:42:10.567Z,1022.39
2017-10-02T01:43:12.385Z,1022.40
2017-10-02T01:44:14.265Z,1022.38
2017-10-02T01:45:16.158Z,1022.39
2017-10-02T01:46:18.041Z,1022.38
2017-10-02T01:47:32.207Z,1022.45
2017-10-02T01:48:34.089Z,1022.45
2017-10-02T01:49:35.972Z,1022.43
2017-10-02T01:50:37.892Z,1022.45
2017-10-02T01:51:39.691Z,1022.41
2017-10-02T01:52:41.513Z,1022.42
2017-10-02T01:53:43.407Z,1022.43
2017-10-02T01:54:45.288Z,1022.44
2017-10-02T01:55:47.172Z,1022.41
2017-10-02T01:57:01.335Z,1022.40
2017-10-02T01:58:03.219Z,1022.39
2017-10-02T01:59:05.104Z,1022.36
2017-10-02T02:00:06.988Z,1022.35
2017-10-02T02:01:08.807Z,1022.32
2017-10-02T02:02:10.640Z,1022.31
2017-10-02T02:03:12.523Z,1022.30
2017-10-02T02:04:14.414Z,1022.31
2017-10-02T02:05:16.311Z,1022.31
2017-10-02T02:06:30.478Z,1022.34
2017-10-02T02:07:32.356Z,1022.35
2017-10-02T02:08:34.246Z,1022.34
2017-10-02T02:09:36.133Z,1022.34
2017-10-02T02:10:37.950Z,1022.30
2017-10-02T02:11:39.768Z,1022.33
2017-10-02T02:12:41.660Z,1022.33
2017-10-02T02:13:43.556Z,1022.29
2017-10-02T02:14:45.438Z,1022.29
2017-10-02T02:15:59.602Z,1022.27
2017-10-02T02:17:01.496Z,1022.26
2017-10-02T02:18:03.390Z,1022.25
2017-10-02T02:19:05.287Z,1022.24
2017-10-02T02:20:07.105Z,1022.22
2017-10-02T02:21:08.937Z,1022.23
2017-10-02T02:22:10.815Z,1022.20
2017-10-02T02:23:12.698Z,1022.18
2017-10-02T02:24:14.581Z,1022.23
2017-10-02T02:25:28.746Z,1022.17
2017-10-02T02:26:30.628Z,1022.19
2017-10-02T02:27:32.518Z,1022.19
2017-10-02T02:28:34.396Z,1022.16
2017-10-02T02:29:36.227Z,1022.19
2017-10-02T02:30:38.049Z,1022.15
2017-10-02T02:31:39.934Z,1022.17
2017-10-02T02:32:41.825Z,1022.14
2017-10-02T02:33:43.710Z,1022.19
2017-10-02T02:34:57.924Z,1022.21
2017-10-02T02:35:59.805Z,1022.21
2017-10-02T02:37:01.700Z,1022.17
2017-10-02T02:38:03.582Z,1022.19
2017-10-02T02:39:05.418Z,1022.19
2017-10-02T02:40:07.230Z,1022.17
2017-10-02T02:41:09.114Z,1022.20
2017-10-02T02:42:10.994Z,1022.18
2017-10-02T02:43:12.878Z,1022.14
2017-10-02T02:44:27.079Z,1022.20
2017-10-02T02:45:28.977Z,1022.19
2017-10-02T02:46:30.870Z,1022.16
2017-10-02T02:47:32.756Z,1022.19
2017-10-02T02:48:34.576Z,1022.17
2017-10-02T02:49:36.396Z,1022.14
2017-10-02T02:50:38.290Z,1022.11
2017-10-02T02:51:40.170Z,1022.11
2017-10-02T02:52:42.065Z,1022.04
2017-10-02T02:53:56.246Z,1022.07
2017-10-02T02:54:58.103Z,1022.02
2017-10-02T02:55:59.993Z,1022.03
2017-10-02T02:57:01.877Z,1022.03
2017-10-02T02:58:03.698Z,1022.06
2017-10-02T02:59:05.527Z,1022.05
2017-10-02T03:00:07.408Z,1022.03
2017-10-02T03:01:09.299Z,1022.02
2017-10-02T03:02:11.183Z,1022.04
2017-10-02T03:03:25.352Z,1021.97
2017-10-02T03:04:27.234Z,1021.97
2017-10-02T03:05:29.129Z,1021.93
2017-10-02T03:06:31.011Z,1021.93
2017-10-02T03:07:32.842Z,1021.92
2017-10-02T03:08:34.664Z,1021.95
2017-10-02T03:09:36.547Z,1021.94
2017-10-02T03:10:38.428Z,1021.94
2017-10-02T03:11:40.312Z,1021.94
2017-10-02T03:12:54.478Z,1021.92
2017-10-02T03:13:56.358Z,1021.95
2017-10-02T03:14:58.249Z,1021.93
2017-10-02T03:16:00.136Z,1021.92
2017-10-02T03:17:01.966Z,1021.91
2017-10-02T03:18:03.790Z,1021.91
2017-10-02T03:19:05.677Z,1021.84
2017-10-02T03:20:07.569Z,1021.84
2017-10-02T03:21:09.454Z,1021.78
2017-10-02T03:22:23.607Z,1021.77
2017-10-02T03:23:25.501Z,1021.74
2017-10-02T03:24:27.383Z,1021.79
2017-10-02T03:25:29.270Z,1021.76
2017-10-02T03:26:31.087Z,1021.81
2017-10-02T03:27:32.939Z,1021.76
2017-10-02T03:28:34.856Z,1021.79
2017-10-02T03:29:36.735Z,1021.73
2017-10-02T03:30:38.636Z,1021.77
2017-10-02T03:31:52.782Z,1021.73
2017-10-02T03:32:54.675Z,1021.75
2017-10-02T03:33:56.554Z,1021.70
2017-10-02T03:34:58.440Z,1021.73
2017-10-02T03:36:00.257Z,1021.69
2017-10-02T03:37:02.090Z,1021.73
2017-10-02T03:38:03.971Z,1021.72
2017-10-02T03:39:05.863Z,1021.71
2017-10-02T03:40:07.751Z,1021.71
2017-10-02T03:41:21.924Z,1021.71
2017-10-02T03:42:23.802Z,1021.72
2017-10-02T03:43:25.682Z,1021.71
2017-10-02T03:44:27.578Z,1021.69
2017-10-02T03:45:29.406Z,1021.74
2017-10-02T03:46:31.221Z,1021.70
2017-10-02T03:47:33.122Z,1021.72
2017-10-02T03:48:34.995Z,1021.71
2017-10-02T03:49:36.878Z,1021.70
2017-10-02T03:50:51.043Z,1021.72
2017-10-02T03:51:52.923Z,1021.66
2017-10-02T03:52:54.806Z,1021.67
2017-10-02T03:53:56.702Z,1021.65
2017-10-02T03:54:58.534Z,1021.66
2017-10-02T03:56:00.353Z,1021.70
2017-10-02T03:57:02.235Z,1021.68
2017-10-02T03:58:04.129Z,1021.71
2017-10-02T03:59:06.078Z,1021.71
2017-10-02T04:00:20.217Z,1021.70
2017-10-02T04:01:22.100Z,1021.68
2017-10-02T04:02:23.982Z,1021.68
2017-10-02T04:03:25.869Z,1021.65
2017-10-02T04:04:27.737Z,1021.63
2017-10-02T04:05:29.556Z,1021.58
2017-10-02T04:06:31.437Z,1021.61
2017-10-02T04:07:33.319Z,1021.61
2017-10-02T04:08:35.205Z,1021.64
2017-10-02T04:09:49.354Z,1021.66
2017-10-02T04:10:51.248Z,1021.65
2017-10-02T04:11:53.138Z,1021.68
2017-10-02T04:12:55.025Z,1021.68
2017-10-02T04:13:56.845Z,1021.67
2017-10-02T04:14:58.663Z,1021.66
2017-10-02T04:16:00.544Z,1021.75
2017-10-02T04:17:02.427Z,1021.66
2017-10-02T04:18:04.309Z,1021.73
2017-10-02T04:19:18.473Z,1021.70
2017-10-02T04:20:20.366Z,1021.75
2017-10-02T04:21:22.257Z,1021.68
2017-10-02T04:22:24.152Z,1021.73
2017-10-02T04:23:25.969Z,1021.61
2017-10-02T04:24:27.788Z,1021.63
2017-10-02T04:25:29.672Z,1021.63
2017-10-02T04:26:31.562Z,1021.65
2017-10-02T04:27:33.455Z,1021.58
2017-10-02T04:28:47.606Z,1021.60
2017-10-02T04:29:49.512Z,1021.62
2017-10-02T04:30:51.411Z,1021.53
2017-10-02T04:31:53.321Z,1021.58
2017-10-02T04:32:55.140Z,1021.61
2017-10-02T04:33:56.960Z,1021.57
2017-10-02T04:34:58.844Z,1021.55
2017-10-02T04:36:00.723Z,1021.54
2017-10-02T04:37:02.608Z,1021.50
2017-10-02T04:38:16.763Z,1021.46
2017-10-02T04:39:18.659Z,1021.50
2017-10-02T04:40:20.550Z,1021.44
2017-10-02T04:41:22.435Z,1021.48
2017-10-02T04:42:24.256Z,1021.46
2017-10-02T04:43:26.091Z,1021.46
2017-10-02T04:44:27.975Z,1021.45
2017-10-02T04:45:29.856Z,1021.40
2017-10-02T04:46:31.742Z,1021.42
2017-10-02T04:47:45.894Z,1021.41
2017-10-02T04:48:47.789Z,1021.43
2017-10-02T04:49:49.680Z,1021.41
2017-10-02T04:50:51.566Z,1021.44
2017-10-02T04:51:53.396Z,1021.42
2017-10-02T04:52:55.226Z,1021.42
2017-10-02T04:53:57.121Z,1021.44
2017-10-02T04:54:59.015Z,1021.47
2017-10-02T04:56:00.902Z,1021.50
2017-10-02T04:57:15.068Z,1021.49
2017-10-02T04:58:16.952Z,1021.55
2017-10-02T04:59:18.837Z,1021.48
2017-10-02T05:00:20.723Z,1021.49
2017-10-02T05:01:22.543Z,1021.49
2017-10-02T05:02:24.376Z,1021.52
2017-10-02T05:03:26.260Z,1021.44
2017-10-02T05:04:28.142Z,1021.42
2017-10-02T05:05:30.029Z,1021.46
2017-10-02T05:06:44.194Z,1021.43
2017-10-02T05:07:46.078Z,1021.43
2017-10-02T05:08:47.962Z,1021.43
2017-10-02T05:09:49.859Z,1021.48
2017-10-02T05:10:51.694Z,1021.42
2017-10-02T05:11:53.572Z,1021.45
2017-10-02T05:12:55.509Z,1021.40
2017-10-02T05:13:57.432Z,1021.41
2017-10-02T05:14:59.329Z,1021.35
2017-10-02T05:16:13.499Z,1021.34
2017-10-02T05:17:15.384Z,1021.40
2017-10-02T05:18:17.266Z,1021.37
2017-10-02T05:19:19.166Z,1021.40
2017-10-02T05:20:20.991Z,1021.39
2017-10-02T05:21:22.813Z,1021.41
2017-10-02T05:22:24.700Z,1021.48
2017-10-02T05:23:26.584Z,1021.49
2017-10-02T05:24:28.489Z,1021.50
2017-10-02T05:25:42.638Z,1021.49
2017-10-02T05:26:44.525Z,1021.53
2017-10-02T05:27:46.421Z,1021.50
2017-10-02T05:28:48.311Z,1021.47
2017-10-02T05:29:50.135Z,1021.46
2017-10-02T05:30:51.961Z,1021.50
2017-10-02T05:31:53.855Z,1021.44
2017-10-02T05:32:55.739Z,1021.47
2017-10-02T05:33:57.626Z,1021.47
2017-10-02T05:35:11.793Z,1021.43
2017-10-02T05:36:13.680Z,1021.45
2017-10-02T05:37:15.636Z,1021.50
2017-10-02T05:38:17.538Z,1021.48
2017-10-02T05:39:19.367Z,1021.48
2017-10-02T05:40:21.194Z,1021.48
2017-10-02T05:41:23.086Z,1021.44
2017-10-02T05:42:24.968Z,1021.46
2017-10-02T05:43:26.859Z,1021.48
2017-10-02T05:44:41.017Z,1021.47
2017-10-02T05:45:42.908Z,1021.51
2017-10-02T05:46:44.789Z,1021.51
2017-10-02T05:47:46.681Z,1021.52
2017-10-02T05:48:48.506Z,1021.48
2017-10-02T05:49:50.330Z,1021.52
2017-10-02T05:50:52.219Z,1021.49
2017-10-02T05:51:54.118Z,1021.45
2017-10-02T05:52:56.008Z,1021.43
2017-10-02T05:54:10.168Z,1021.41
2017-10-02T05:55:12.060Z,1021.42
2017-10-02T05:56:13.944Z,1021.42
2017-10-02T05:57:15.844Z,1021.38
2017-10-02T05:58:17.674Z,1021.36
2017-10-02T05:59:19.499Z,1021.41
2017-10-02T06:00:21.387Z,1021.30
2017-10-02T06:01:23.275Z,1021.32
2017-10-02T06:02:25.164Z,1021.31
2017-10-02T06:03:39.330Z,1021.30
2017-10-02T06:04:41.216Z,1021.31
2017-10-02T06:05:43.114Z,1021.37
2017-10-02T06:06:45.009Z,1021.34
2017-10-02T06:07:46.830Z,1021.33
2017-10-02T06:08:48.654Z,1021.37
2017-10-02T06:09:50.545Z,1021.34
2017-10-02T06:10:52.432Z,1021.38
2017-10-02T06:11:54.321Z,1021.47
2017-10-02T06:13:08.489Z,1021.50
2017-10-02T06:14:10.381Z,1021.50
2017-10-02T06:15:12.269Z,1021.53
2017-10-02T06:16:14.166Z,1021.50
2017-10-02T06:17:15.991Z,1021.56
2017-10-02T06:18:17.829Z,1021.50
2017-10-02T06:19:19.719Z,1021.47
2017-10-02T06:20:21.605Z,1021.52
2017-10-02T06:21:23.504Z,1021.48
2017-10-02T06:22:37.657Z,1021.51
2017-10-02T06:23:39.543Z,1021.49
2017-10-02T06:24:41.428Z,1021.47
2017-10-02T06:25:43.321Z,1021.45
2017-10-02T06:26:45.148Z,1021.46
2017-10-02T06:27:46.970Z,1021.44
2017-10-02T06:28:48.862Z,1021.36
2017-10-02T06:29:50.753Z,1021.41
2017-10-02T06:30:52.644Z,1021.38
2017-10-02T06:32:06.805Z,1021.36
2017-10-02T06:33:08.686Z,1021.38
2017-10-02T06:34:10.583Z,1021.28
2017-10-02T06:35:12.480Z,1021.28
2017-10-02T06:36:14.379Z,1021.25
2017-10-02T06:37:16.234Z,1021.26
2017-10-02T06:38:18.124Z,1021.21
2017-10-02T06:39:20.013Z,1021.22
2017-10-02T06:40:21.901Z,1021.21
2017-10-02T06:41:36.064Z,1021.19
2017-10-02T06:42:37.956Z,1021.18
2017-10-02T06:43:39.840Z,1021.18
2017-10-02T06:44:41.733Z,1021.14
2017-10-02T06:45:43.559Z,1021.22
2017-10-02T06:46:45.383Z,1021.22
2017-10-02T06:47:47.272Z,1021.19
2017-10-02T06:48:49.186Z,1021.21
2017-10-02T06:49:51.053Z,1021.26
2017-10-02T06:51:05.220Z,1021.23
2017-10-02T06:52:07.108Z,1021.27
2017-10-02T06:53:09.001Z,1021.26
2017-10-02T06:54:10.890Z,1021.30
2017-10-02T06:55:12.721Z,1021.34
2017-10-02T06:56:14.546Z,1021.36
2017-10-02T06:57:16.436Z,1021.26
2017-10-02T06:58:18.325Z,1021.35
2017-10-02T06:59:20.216Z,1021.33
2017-10-02T07:00:34.377Z,1021.35
2017-10-02T07:01:36.267Z,1021.37
2017-10-02T07:02:38.164Z,1021.28
2017-10-02T07:03:40.065Z,1021.31
2017-10-02T07:04:41.875Z,1021.31
2017-10-02T07:05:43.701Z,1021.35
2017-10-02T07:06:45.613Z,1021.38
2017-10-02T07:07:47.513Z,1021.39
2017-10-02T07:08:49.405Z,1021.42
2017-10-02T07:10:03.576Z,1021.40
2017-10-02T07:11:05.465Z,1021.42
2017-10-02T07:12:07.411Z,1021.37
2017-10-02T07:13:09.395Z,1021.37
2017-10-02T07:14:11.300Z,1021.39
2017-10-02T07:15:13.109Z,1021.42
2017-10-02T07:16:15.003Z,1021.32
2017-10-02T07:17:16.890Z,1021.34
2017-10-02T07:18:18.793Z,1021.34
2017-10-02T07:19:32.953Z,1021.24
2017-10-02T07:20:34.842Z,1021.35
2017-10-02T07:21:36.740Z,1021.32
2017-10-02T07:22:38.643Z,1021.32
2017-10-02T07:23:40.480Z,1021.36
2017-10-02T07:24:42.317Z,1021.22
2017-10-02T07:25:44.207Z,1021.34
2017-10-02T07:26:46.109Z,1021.33
2017-10-02T07:27:48.000Z,1021.26
2017-10-02T07:29:02.170Z,1021.33
2017-10-02T07:30:04.077Z,1021.29
2017-10-02T07:31:05.965Z,1021.27
2017-10-02T07:32:07.869Z,1021.26
2017-10-02T07:33:09.697Z,1021.27
2017-10-02T07:34:11.543Z,1021.29
2017-10-02T07:35:13.428Z,1021.18
2017-10-02T07:36:15.327Z,1021.18
2017-10-02T07:37:17.234Z,1021.27
2017-10-02T07:38:31.423Z,1021.21
2017-10-02T07:39:33.318Z,1021.19
2017-10-02T07:40:35.222Z,1021.20
2017-10-02T07:41:37.117Z,1021.16
2017-10-02T07:42:38.958Z,1021.16
2017-10-02T07:43:40.798Z,1021.23
2017-10-02T07:44:42.757Z,1021.22
2017-10-02T07:45:44.744Z,1021.23
2017-10-02T07:46:46.620Z,1021.24
2017-10-02T07:48:00.795Z,1021.29
2017-10-02T07:49:02.694Z,1021.27
2017-10-02T07:50:04.590Z,1021.34
2017-10-02T07:51:06.484Z,1021.33
2017-10-02T07:52:08.323Z,1021.25
2017-10-02T07:53:10.150Z,1021.27
2017-10-02T07:54:12.041Z,1021.28
2017-10-02T07:55:13.937Z,1021.21
2017-10-02T07:56:15.840Z,1021.28
2017-10-02T07:57:30.004Z,1021.22
2017-10-02T07:58:31.890Z,1021.32
2017-10-02T07:59:33.785Z,1021.20
2017-10-02T08:00:35.682Z,1021.23
2017-10-02T08:01:37.517Z,1021.20
2017-10-02T08:02:39.347Z,1021.11
2017-10-02T08:03:41.288Z,1021.12
2017-10-02T08:04:43.173Z,1021.13
2017-10-02T08:05:45.066Z,1021.12
2017-10-02T08:06:59.232Z,1021.13
2017-10-02T08:08:01.129Z,1021.11
2017-10-02T08:09:03.021Z,1021.10
2017-10-02T08:10:04.918Z,1021.11
2017-10-02T08:11:06.750Z,1021.11
2017-10-02T08:12:08.579Z,1021.12
2017-10-02T08:13:10.477Z,1021.18
2017-10-02T08:14:12.368Z,1021.06
2017-10-02T08:15:14.262Z,1021.04
2017-10-02T08:16:28.428Z,1021.00
2017-10-02T08:17:30.319Z,1021.00
2017-10-02T08:18:32.209Z,1020.98
2017-10-02T08:19:34.112Z,1020.97
2017-10-02T08:20:36.140Z,1020.94
2017-10-02T08:21:37.971Z,1020.99
2017-10-02T08:22:39.864Z,1020.97
2017-10-02T08:23:41.755Z,1020.94
2017-10-02T08:24:43.660Z,1021.03
2017-10-02T08:25:57.823Z,1021.02
2017-10-02T08:26:59.714Z,1020.90
2017-10-02T08:28:01.682Z,1021.06
2017-10-02T08:29:03.617Z,1021.00
2017-10-02T08:30:05.445Z,1021.06
2017-10-02T08:31:07.286Z,1020.94
2017-10-02T08:32:09.194Z,1021.01
2017-10-02T08:33:11.120Z,1021.01
2017-10-02T08:34:13.014Z,1020.96
2017-10-02T08:35:27.184Z,1020.97
2017-10-02T08:36:29.099Z,1020.97
2017-10-02T08:37:31.041Z,1020.99
2017-10-02T08:38:32.954Z,1020.96
2017-10-02T08:39:34.783Z,1020.94
2017-10-02T08:40:36.620Z,1020.93
2017-10-02T08:41:38.534Z,1020.94
2017-10-02T08:42:40.423Z,1020.98
2017-10-02T08:43:42.320Z,1020.96
2017-10-02T08:44:56.562Z,1021.02
2017-10-02T08:45:58.500Z,1020.96
2017-10-02T08:47:00.391Z,1020.94
2017-10-02T08:48:02.294Z,1021.02
2017-10-02T08:49:04.134Z,1020.99
2017-10-02T08:50:05.964Z,1020.96
2017-10-02T08:51:07.902Z,1021.00
2017-10-02T08:52:09.842Z,1020.97
2017-10-02T08:53:11.735Z,1021.10
2017-10-02T08:54:26.026Z,1021.02
2017-10-02T08:55:27.945Z,1021.04
2017-10-02T08:56:29.848Z,1021.13
2017-10-02T08:57:31.743Z,1021.09
2017-10-02T08:58:33.571Z,1021.12
2017-10-02T08:59:35.402Z,1021.05
2017-10-02T09:00:37.244Z,1021.00
2017-10-02T09:01:39.068Z,1021.07
2017-10-02T09:02:40.911Z,1021.02
2017-10-02T09:03:55.072Z,1021.06
2017-10-02T09:04:56.967Z,1021.11
2017-10-02T09:05:58.867Z,1021.08
2017-10-02T09:07:00.758Z,1021.03
2017-10-02T09:08:02.589Z,1021.17
2017-10-02T09:09:04.439Z,1021.12
2017-10-02T09:10:06.328Z,1021.13
2017-10-02T09:11:08.219Z,1021.15
2017-10-02T09:12:10.115Z,1021.08
2017-10-02T09:13:24.293Z,1021.00
2017-10-02T09:14:26.276Z,1021.01
2017-10-02T09:15:28.147Z,1020.91
2017-10-02T09:16:30.043Z,1020.96
2017-10-02T09:17:31.873Z,1020.96
2017-10-02T09:18:33.703Z,1020.89
2017-10-02T09:19:35.792Z,1020.93
2017-10-02T09:20:37.705Z,1020.89
2017-10-02T09:21:39.615Z,1020.88
2017-10-02T09:22:53.782Z,1020.91
2017-10-02T09:23:55.675Z,1020.89
2017-10-02T09:24:57.565Z,1020.86
2017-10-02T09:25:59.460Z,1020.88
2017-10-02T09:27:01.290Z,1020.74
2017-10-02T09:28:03.121Z,1020.68
2017-10-02T09:29:05.021Z,1020.76
2017-10-02T09:30:06.910Z,1020.74
2017-10-02T09:31:08.834Z,1020.82
2017-10-02T09:32:23.295Z,1020.70
2017-10-02T09:33:25.214Z,1020.85
2017-10-02T09:34:27.109Z,1020.88
2017-10-02T09:35:29.011Z,1020.89
2017-10-02T09:36:30.844Z,1020.93
2017-10-02T09:37:32.701Z,1020.88
2017-10-02T09:38:34.607Z,1020.92
2017-10-02T09:39:36.497Z,1020.98
2017-10-02T09:40:38.394Z,1020.99
2017-10-02T09:41:52.968Z,1020.84
2017-10-02T09:42:54.883Z,1020.99
2017-10-02T09:43:56.772Z,1020.88
2017-10-02T09:44:58.667Z,1021.03
2017-10-02T09:46:00.499Z,1020.97
2017-10-02T09:47:02.336Z,1020.97
2017-10-02T09:48:04.235Z,1021.11
2017-10-02T09:49:06.170Z,1020.93
2017-10-02T09:50:08.105Z,1020.93
2017-10-02T09:51:22.276Z,1020.87
2017-10-02T09:52:24.174Z,1020.90
2017-10-02T09:53:26.073Z,1020.84
2017-10-02T09:54:27.964Z,1020.80
2017-10-02T09:55:29.801Z,1020.69
2017-10-02T09:56:31.629Z,1020.60
2017-10-02T09:57:33.533Z,1020.64
2017-10-02T09:58:35.433Z,1020.62
2017-10-02T09:59:37.326Z,1020.63
2017-10-02T10:00:51.491Z,1020.56
2017-10-02T10:01:53.385Z,1020.46
2017-10-02T10:02:55.289Z,1020.46
2017-10-02T10:03:57.185Z,1020.47
2017-10-02T10:04:59.014Z,1020.42
2017-10-02T10:06:00.856Z,1020.39
2017-10-02T10:07:02.752Z,1020.40
2017-10-02T10:08:04.643Z,1020.39
2017-10-02T10:09:06.539Z,1020.36
2017-10-02T10:10:20.704Z,1020.34
2017-10-02T10:11:22.601Z,1020.38
2017-10-02T10:12:24.504Z,1020.32
2017-10-02T10:13:26.396Z,1020.23
2017-10-02T10:14:28.229Z,1020.30
2017-10-02T10:15:30.071Z,1020.12
2017-10-02T10:16:31.964Z,1020.15
2017-10-02T10:17:33.854Z,1020.14
2017-10-02T10:18:35.750Z,1020.20
2017-10-02T10:19:49.946Z,1020.03
2017-10-02T10:20:51.840Z,1020.16
2017-10-02T10:21:53.767Z,1020.23
2017-10-02T10:22:55.663Z,1020.11
2017-10-02T10:23:57.507Z,1020.09
2017-10-02T10:24:59.330Z,1020.12
2017-10-02T10:26:01.247Z,1020.01
2017-10-02T10:27:03.141Z,1019.97
2017-10-02T10:28:05.040Z,1020.05
2017-10-02T10:29:19.207Z,1020.09
2017-10-02T10:30:21.102Z,1020.08
2017-10-02T10:31:23.004Z,1020.03
2017-10-02T10:32:24.919Z,1020.00
2017-10-02T10:33:26.755Z,1019.92
2017-10-02T10:34:28.586Z,1019.96
2017-10-02T10:35:30.486Z,1019.97
2017-10-02T10:36:32.385Z,1019.80
2017-10-02T10:37:34.280Z,1019.80
2017-10-02T10:38:48.450Z,1019.81
2017-10-02T10:39:50.340Z,1019.75
2017-10-02T10:40:52.244Z,1019.63
2017-10-02T10:41:54.153Z,1019.68
2017-10-02T10:42:55.986Z,1019.69
2017-10-02T10:43:57.820Z,1019.70
2017-10-02T10:44:59.722Z,1019.73
2017-10-02T10:46:01.604Z,1019.58
2017-10-02T10:47:03.511Z,1019.68
2017-10-02T10:48:17.694Z,1019.54
2017-10-02T10:49:19.580Z,1019.54
2017-10-02T10:50:21.488Z,1019.51
2017-10-02T10:51:23.395Z,1019.48
2017-10-02T10:52:25.224Z,1019.36
2017-10-02T10:53:27.056Z,1019.40
2017-10-02T10:54:28.950Z,1019.52
2017-10-02T10:55:30.846Z,1019.40
2017-10-02T10:56:32.743Z,1019.43
2017-10-02T10:57:46.907Z,1019.44
2017-10-02T10:58:48.802Z,1019.28
2017-10-02T10:59:50.694Z,1019.39
2017-10-02T11:00:52.592Z,1019.39
2017-10-02T11:01:54.428Z,1019.29
2017-10-02T11:02:56.260Z,1019.28
2017-10-02T11:03:58.154Z,1019.15
2017-10-02T11:05:00.049Z,1019.17
2017-10-02T11:06:01.950Z,1019.00
2017-10-02T11:07:16.114Z,1019.01
2017-10-02T11:08:18.022Z,1018.88
2017-10-02T11:09:19.912Z,1018.84
2017-10-02T11:10:21.809Z,1018.80
2017-10-02T11:11:23.696Z,1018.72
2017-10-02T11:12:25.552Z,1018.73
2017-10-02T11:13:27.457Z,1018.73
2017-10-02T11:14:29.753Z,1018.67
2017-10-02T11:15:31.704Z,1018.63
2017-10-02T11:16:45.865Z,1018.63
2017-10-02T11:17:47.757Z,1018.62
2017-10-02T11:18:49.664Z,1018.52
2017-10-02T11:19:51.556Z,1018.45
2017-10-02T11:20:53.390Z,1018.46
2017-10-02T11:21:55.234Z,1018.40
2017-10-02T11:22:57.130Z,1018.37
2017-10-02T11:23:59.023Z,1018.36
2017-10-02T11:25:00.921Z,1018.37
2017-10-02T11:26:15.088Z,1018.38
2017-10-02T11:27:16.985Z,1018.31
2017-10-02T11:28:18.878Z,1018.39
2017-10-02T11:29:20.787Z,1018.32
2017-10-02T11:30:22.620Z,1018.23
2017-10-02T11:31:24.463Z,1018.26
2017-10-02T11:32:26.363Z,1018.29
2017-10-02T11:33:28.256Z,1018.30
2017-10-02T11:34:30.156Z,1018.37
2017-10-02T11:35:44.318Z,1018.32
2017-10-02T11:36:46.212Z,1018.22
2017-10-02T11:37:48.114Z,1018.17
2017-10-02T11:38:50.033Z,1018.18
2017-10-02T11:39:51.858Z,1018.26
2017-10-02T11:40:53.689Z,1018.14
2017-10-02T11:41:55.596Z,1018.05
2017-10-02T11:42:57.503Z,1018.14
2017-10-02T11:43:59.453Z,1018.12
2017-10-02T11:45:13.628Z,1018.09
2017-10-02T11:46:15.523Z,1017.91
2017-10-02T11:47:17.426Z,1017.92
2017-10-02T11:48:19.334Z,1017.96
2017-10-02T11:49:21.176Z,1017.95
2017-10-02T11:50:23.009Z,1017.93
2017-10-02T11:51:24.906Z,1017.93
2017-10-02T11:52:26.835Z,1017.83
2017-10-02T11:53:28.701Z,1017.88
2017-10-02T11:54:42.928Z,1017.87
2017-10-02T11:55:44.829Z,1017.88
2017-10-02T11:56:46.724Z,1017.83
2017-10-02T11:57:48.664Z,1017.78
2017-10-02T11:58:50.563Z,1017.88
2017-10-02T11:59:52.394Z,1017.84
2017-10-02T12:00:54.298Z,1017.74
2017-10-02T12:01:56.193Z,1017.78
2017-10-02T12:02:58.090Z,1017.77
2017-10-02T12:04:12.256Z,1017.76
2017-10-02T12:05:14.164Z,1017.68
2017-10-02T12:06:16.057Z,1017.71
2017-10-02T12:07:17.963Z,1017.76
2017-10-02T12:08:19.799Z,1017.67
2017-10-02T12:09:21.896Z,1017.66
2017-10-02T12:10:23.763Z,1017.60
2017-10-02T12:11:25.671Z,1017.63
2017-10-02T12:12:27.558Z,1017.61
2017-10-02T12:13:41.747Z,1017.60
2017-10-02T12:14:43.643Z,1017.61
2017-10-02T12:15:45.541Z,1017.58
2017-10-02T12:16:47.438Z,1017.57
2017-10-02T12:17:49.273Z,1017.64
2017-10-02T12:18:51.103Z,1017.58
2017-10-02T12:19:53.034Z,1017.48
2017-10-02T12:20:54.906Z,1017.54
2017-10-02T12:21:56.806Z,1017.47
2017-10-02T12:23:10.974Z,1017.55
2017-10-02T12:24:12.874Z,1017.60
2017-10-02T12:25:14.765Z,1017.66
2017-10-02T12:26:16.662Z,1017.68
2017-10-02T12:27:18.495Z,1017.62
2017-10-02T12:28:20.327Z,1017.80
2017-10-02T12:29:22.228Z,1017.73
2017-10-02T12:30:24.133Z,1017.71
2017-10-02T12:31:26.031Z,1017.68
2017-10-02T12:32:40.196Z,1017.74
2017-10-02T12:33:42.089Z,1017.83
2017-10-02T12:34:43.984Z,1017.68
2017-10-02T12:35:45.880Z,1017.73
2017-10-02T12:36:47.715Z,1017.66
2017-10-02T12:37:49.552Z,1017.76
2017-10-02T12:38:51.447Z,1017.74
2017-10-02T12:39:53.343Z,1017.84
2017-10-02T12:40:55.239Z,1017.69
2017-10-02T12:42:09.404Z,1017.60
2017-10-02T12:43:11.300Z,1017.61
2017-10-02T12:44:13.198Z,1017.57
2017-10-02T12:45:15.090Z,1017.56